Accueil
METAR-TAF:

METAR-TAF

Aéroports :

Aéroport d'Aurillac

Aurillac, France

latitude: 44-53N, longitude: 002-25E, altitude: 639 m

Observation

Le bulletin a été fait il y a 1 heure et 4 minutes, à 12:30 UTC
Vent 8 kt de nord/nord-ouest, variant entre nord-ouest et est/nord-est
Température 7°C
Humidité 70%
Pression 1014 hPa
Visibilité 10 km ou plus

METAR: LFLW 191230Z AUTO 34008KT 310V060 9999 ////// 07/02 Q1014

Heure: 14:34 (13:34 UTC)

Prévision

Le bulletin a été fait il y a 2 heures et 34 minutes, à 11:00 UTC
Prévision valable du 19 à 12 UTC au 19 à 21 UTC
Vent 5 kt de nord-ouest
Visibilité 10 km ou plus
Nuages fragmentés à une hauteur de 500 ft
Temporairement
du 19 à 13 UTC au 19 à 21 UTC
Visibilité 10 km ou plus
pas de nuages en-dessous de 1500 mètres et pas de cumulonimbus.

TAF: LFLW 191100Z 1912/1921 31005KT 9999 BKN005 TEMPO 1913/1921 CAVOK

Observations et prévisions météorologiques de plus de 4000 aéroports (messages METAR et TAF).

Les stations disponibles sont représentées par des disques jaunes et rouges sur la carte.

Passer la souris dessus pour voir le nom de la station.

Cliquer dessus pour voir les observations et prévisions météorologiques.

Pour changer de carte: cliquez sur les boutons verts avec une croix noire pour zoomer, sur le bouton vert avec un tiret pour effectuer un zoom arrière, ou sur les flèches vertes pour les cartes adjacentes.


METAR-TAF: